Terminal Aerodrome Forecast
Issued by NWS Wakefield, VA

Home | Current Version | Previous Version | Text Only | Print | Product List | Glossary On
Versions: 1 2 3 4 5 6 7 8 9 10 11 12 13 14
000
FTUS41 KAKQ 270700 AAA
TAFECG
TAF AMD
KECG 270715Z 2707/2806 36005KT 5SM BR SCT002 BKN006
      TEMPO 2707/2709 2SM BR BKN002
     FM270900 36004KT 2SM BR BKN002
      TEMPO 2709/2712 1/2SM FG
     FM271400 03010KT P6SM SCT035=

USA.gov is the U.S. government's official web portal to all federal, state and local government web resources and services.